ADDS METAR Data INFO
IDs: Format: Raw Decoded Include TAF

Data at: 2115 UTC 25 Feb 2018

KCDS 252053Z AUTO 29014G23KT 10SM CLR 20/M13 A2993 RMK AO2 PK WND 28026/2037 SLP128 T02001133 56023
KCDS 251953Z AUTO 25012KT 10SM CLR 20/M13 A2993 RMK AO2 SLP130 T02001133
KCDS 251853Z AUTO 24013G19KT 10SM CLR 19/M13 A2996 RMK AO2 SLP139 T01891128
KCDS 251753Z AUTO 21009KT 10SM CLR 17/M11 A3000 RMK AO2 SLP152 T01671106 10167 21028 58006
KCDS 251653Z AUTO 25009KT 10SM CLR 15/M11 A3001 RMK AO2 SLP156 T01501111
KCDS 251553Z AUTO 25008KT 10SM CLR 11/M07 A3002 RMK AO2 SLP164 T01061072
KCDS 251453Z AUTO 31005KT 10SM CLR 02/M04 A3002 RMK AO2 SLP168 T00221044 53009
KCDS 251353Z AUTO 32004KT 10SM CLR M02/M07 A3000 RMK AO2 SLP165 T10171072
KCDS 251253Z AUTO 25007KT 10SM CLR M02/M08 A2999 RMK AO2 SLP162 T10221083
KCDS 251153Z AUTO 20008KT 10SM CLR M01/M06 A2999 RMK AO2 SLP153 T10111061 10044 21017 51004
KCDS 251053Z AUTO 21009KT 10SM CLR 00/M07 A2998 RMK AO2 SLP149 T00001067
KCDS 250953Z AUTO 17007KT 10SM CLR M01/M03 A2998 RMK AO2 SLP151 T10111028
KCDS 250853Z AUTO 16007KT 10SM CLR 00/M01 A2997 RMK AO2 SLP147 T00001011 58009
KCDS 250753Z AUTO 15008KT 10SM CLR 01/M01 A3000 RMK AO2 SLP154 T00061006
KCDS 250653Z AUTO 13008KT 10SM CLR 02/01 A3000 RMK AO2 SLP156 T00170006
KCDS 250553Z AUTO 11007KT 10SM CLR 04/01 A3000 RMK AO2 SLP158 T00390006 10150 20033 401830028 51010
KCDS 250453Z AUTO 34006KT 10SM CLR 06/M10 A3000 RMK AO2 SLP159 T00561100
KCDS 250353Z AUTO 25008KT 10SM CLR 04/M08 A2998 RMK AO2 SLP155 T00441083
KCDS 250253Z AUTO 25007KT 10SM CLR 07/M09 A2997 RMK AO2 SLP151 T00671089 51025
KCDS 250153Z AUTO 25008KT 10SM CLR 08/M09 A2995 RMK AO2 SLP143 T00781089
KCDS 250053Z AUTO 28008KT 10SM CLR 09/M09 A2992 RMK AO2 SLP132 T00891089
KCDS 242353Z AUTO 29013G20KT 10SM CLR 16/M13 A2989 RMK AO2 PK WND 26028/2317 SLP118 T01561133 10183 20117 51021
KCDS 242253Z AUTO 27017G23KT 10SM CLR 17/M14 A2987 RMK AO2 PK WND 28031/2204 SLP109 T01671144
KCDS 242153Z AUTO 27020G27KT 10SM CLR 17/M14 A2986 RMK AO2 PK WND 29036/2112 SLP105 T01721139
KCDS 242053Z AUTO 28024G35KT 10SM CLR 18/M13 A2983 RMK AO2 PK WND 29039/2007 SLP093 T01781133 56018
KCDS 241953Z AUTO 28029G41KT 10SM CLR 18/M10 A2983 RMK AO2 PK WND 29041/1951 SLP095 T01781100
KCDS 241853Z AUTO 29011G17KT 10SM CLR 16/02 A2984 RMK AO2 SLP101 T01610022
KCDS 241753Z AUTO 27009KT 10SM CLR 12/04 A2988 RMK AO2 SLP117 T01170044 10117 20028 58002
KCDS 241709Z AUTO 26009KT 10SM SCT005 08/06 A2990 RMK AO2 T00830061
KCDS 241653Z AUTO 25008KT 10SM BKN005 08/06 A2990 RMK AO2 SLP126 T00780061
KCDS 241553Z AUTO 26005KT 10SM OVC005 05/04 A2990 RMK AO2 SLP131 T00500044
KCDS 241538Z AUTO 19003KT 10SM OVC005 05/04 A2990 RMK AO2 CIG 003V008 T00500044
KCDS 241522Z AUTO 17005KT 3SM BR OVC003 04/04 A2989 RMK AO2 T00440044
KCDS 241516Z AUTO 00000KT 1 1/4SM BR OVC003 04/03 A2989 RMK AO2 T00390033
KCDS 241453Z AUTO 00000KT 1/2SM FG VV003 03/03 A2989 RMK AO2 SLP126 T00330033 50004
KCDS 241402Z AUTO 01003KT 1/4SM FG BKN003 OVC006 03/03 A2991 RMK AO2 T00330033
KCDS 241357Z AUTO 01005KT 1SM BR OVC006 03/03 A2991 RMK AO2 T00330033
KCDS 241353Z AUTO 35003KT 10SM OVC006 03/03 A2991 RMK AO2 SLP134 T00330033
KCDS 241316Z AUTO 00000KT 3SM BR SCT003 BKN008 OVC013 03/03 A2988 RMK AO2 T00330033
KCDS 241311Z AUTO 00000KT 2SM BR SCT003 OVC010 03/03 A2988 RMK AO2 T00330033
KCDS 241302Z AUTO 11004KT 1 1/2SM BR BKN003 OVC012 03/03 A2987 RMK AO2 T00330033
KCDS 241253Z AUTO 14007KT 3/4SM BR BKN003 OVC014 03/03 A2986 RMK AO2 SLP117 T00330028
KCDS 241246Z AUTO 13006KT 1/2SM FG BKN003 OVC016 03/03 A2986 RMK AO2 T00330028
KCDS 241238Z AUTO 13007KT 1 1/2SM BR BKN003 BKN016 OVC022 03/03 A2985 RMK AO2 T00280028
KCDS 241235Z AUTO 13006KT 5SM BR BKN003 BKN016 OVC022 03/03 A2985 RMK AO2 T00330028
KCDS 241213Z AUTO 11003KT 3SM BR BKN004 OVC009 03/03 A2986 RMK AO2 T00330028
KCDS 241200Z AUTO 13003KT 1SM BR VV004 03/03 A2987 RMK AO2 T00330028
KCDS 241153Z AUTO 00000KT 3/4SM BR VV005 03/03 A2988 RMK AO2 SLP122 T00330028 10033 20028 55015
KCDS 241127Z AUTO 00000KT 1/2SM FG VV004 03/03 A2988 RMK AO2 T00330028
KCDS 241053Z AUTO 00000KT 1/4SM FG VV003 03/03 A2987 RMK AO2 SLP119 T00330028
KCDS 240953Z AUTO 00000KT 1/2SM FG VV003 03/03 A2991 RMK AO2 SLP133 T00280028
KCDS 240945Z AUTO 20003KT 1/2SM FG VV003 03/03 A2992 RMK AO2 T00280028
KCDS 240933Z AUTO 17006KT 1 3/4SM BR OVC003 03/03 A2993 RMK AO2 T00280028
KCDS 240920Z AUTO 15005KT 3SM BR OVC003 03/02 A2992 RMK AO2 T00280022